Ellensburg, Washington
Current Conditions -  °F | °C
As of 12:53 AM on Saturday 01 Nov 2014 (Local Time) from KELN Reporting Station
Clear Clear  
Wind Chill: 42°   Ceiling: Unl
Heat Index: 47°   Visibility: 10mi
Dew Point: 38°   Wind: 12mph
Humidity: 71%   Direction: 320°NW
Pressure: 29.78"   Gusts: NA
Location:  47°N, 120.54°W
Report Text: KELN 010753Z AUTO 32010KT 10SM CLR 08/03 A2978 RMK AO2 SLP088 T00830033 401220078
Loading
Personal Weather Stations






























Interactive Weather Map
Tropical Storm Tracking
New forecast layout! Learn more

10-Day Weather Forecast

Advertisements
Track Severe Weather on mobile